Aérodrome :
LOGIN :

S'inscrire | Disclaimer

   EN    FR    IT 

 










Légende :    VFR   VFR Marginal   IFR   IFR Intensif   IFR Très Intensif
Visi : 
Plafond : 
>= 8 km
>= 3000ft
5 à 8 km
1000 à 3000 ft
1500m à 5 km
500 à 1000 ft
800 à 1500m
200 à 500 ft
< 800m
< 200 ft
Symboles :   Orages  Brouillard  Fortes neiges  Fortes précipitations  Vent > 20 kt
SIGMETs :   Divers  Orages  Givrage  Turbulence  Onde Orograph.  Cendres Volcan.







- Altitude de l'aérodrome : 299 ft
- Code IATA : EDM
- Voir les cartes d'approche


LFRI - La Roche Sur Yon - Les Ajoncs

DERNIER METAR :
  • 192200Z AUTO 00000KT CAVOK 10/09 Q1025

METARs EXPIRÉS :
  • 192130Z AUTO 00000KT CAVOK 11/09 Q1025
  • 192100Z AUTO 28003KT CAVOK 11/10 Q1025 NOSIG
  • 192030Z AUTO 30003KT CAVOK 11/09 Q1025 NOSIG
  • 192000Z AUTO 30003KT CAVOK 11/09 Q1025 NOSIG
  • 191930Z AUTO 28004KT CAVOK 13/10 Q1025 NOSIG

TAF TAF LFRI
Valide du 19 à 18h jusqu'au 20 à 18h UTC


191700Z 1918/2018 28008KT 9999 SCT040
BECMG 1919/1922 VRB02KT CAVOK
BECMG 2002/2004 1000 BCFG
PROB40 2003/2007 0000 VV///
BECMG 2007/2009 9999 NSW BKN030
TEMPO 2012/2018 20007KT
Pas de NOTAMs connus pour ce terrain.



MET'MAP, la Météo Aéronautique d'un coup d'oeil ! - Copyright ORBIFLY Décembre 2007 - Disclaimer

ORBIFLY MET'MAP TEAM :

Programmation & Développement : Alexandra Zaïnal
Conception & Développement : Baudouin d'Aumeries
Co-Programmation & Développement : Marc-Olivier Méhu
Soutien technique & logistique : Manuel Goepfert

Contact : metmap@orbifly.com




SOURCES & CREDITS :

   NOAA